Huvudsida
METAR-TAF:

METAR-TAF

Flygplatser :

Höga Kusten Airport

Kramfors, Sverige

latitud: 63-03N, longitud: 017-46E, höjd: 10 m

Aktuellt väderrapport

Denna rapport gjordes för 17 minuter sedan, klockan 05:50 UTC
Vind 15 kt från syd
Temperatur 10°C
Fuktighet 82%
Tryck 978 hPa
Sikt 10 km eller mer

METAR: ESNK 220550Z AUTO 17015KT 9999 OVC016/// 10/07 Q0978

Tid: 08:07 (06:07 UTC)

Väderprognos

Denna rapport gjordes för 12 timmar och 37 minuter sedan, klockan 17:30 UTC
Prognos gäller från 21 kl. 18 UTC till 21 kl. 20 UTC
Vind 12 kt från syd/sydost
Sikt 10 km eller mer
Mulet på en höjd av 800 ft
Blir
från 21 kl. 18 UTC till 21 kl. 20 UTC
Brutna moln på en höjd av 3000 ft

TAF: ESNK 211730Z 2118/2120 16012KT 9999 OVC008 BECMG 2118/2120 BKN030

Aktuella väderrapporter och prognoser från 4000 flygplatser (METAR- och TAF-rapporter).

De tillgängliga stationerna syns som gula och röda prickar på kartan.

För musen över prickarna för att se namnen på stationerna.

Klicka sedan för att få väderrapporter och prognoser.

För att ändra kartan: Klicka på de gröna knapparna med ett svart kors på för att zooma in; den gröna knappen med ett streck på för att zooma ut; eller på de gröna pilarna för angränsande kartor.


METAR-TAF: